sensor_id;sensor_type;location;lat;lon;timestamp;P1;durP1;ratioP1;P2;durP2;ratioP2
46653;SDS011;38960;51.074;17.004;2022-07-01T00:01:21;23.40;;;21.40;;
46653;SDS011;38960;51.074;17.004;2022-07-01T00:03:47;23.08;;;21.20;;
46653;SDS011;38960;51.074;17.004;2022-07-01T00:06:14;23.13;;;21.05;;
46653;SDS011;38960;51.074;17.004;2022-07-01T00:08:40;22.63;;;20.55;;
46653;SDS011;38960;51.074;17.004;2022-07-01T00:11:06;22.20;;;20.13;;
46653;SDS011;38960;51.074;17.004;2022-07-01T00:13:32;22.88;;;21.08;;
46653;SDS011;38960;51.074;17.004;2022-07-01T00:15:58;23.13;;;21.13;;
46653;SDS011;38960;51.074;17.004;2022-07-01T00:18:23;21.73;;;20.02;;
46653;SDS011;38960;51.074;17.004;2022-07-01T00:20:49;22.15;;;20.40;;
46653;SDS011;38960;51.074;17.004;2022-07-01T00:23:16;22.58;;;20.67;;
46653;SDS011;38960;51.074;17.004;2022-07-01T00:25:42;23.50;;;21.50;;
46653;SDS011;38960;51.074;17.004;2022-07-01T00:28:08;21.63;;;19.95;;
46653;SDS011;38960;51.074;17.004;2022-07-01T00:30:34;24.05;;;21.20;;
46653;SDS011;38960;51.074;17.004;2022-07-01T00:32:59;21.70;;;19.77;;
46653;SDS011;38960;51.074;17.004;2022-07-01T00:35:25;22.83;;;20.67;;
46653;SDS011;38960;51.074;17.004;2022-07-01T00:37:50;22.33;;;20.40;;
46653;SDS011;38960;51.074;17.004;2022-07-01T00:40:16;22.48;;;20.27;;
46653;SDS011;38960;51.074;17.004;2022-07-01T00:42:41;23.35;;;20.95;;
46653;SDS011;38960;51.074;17.004;2022-07-01T00:45:09;22.05;;;20.27;;
46653;SDS011;38960;51.074;17.004;2022-07-01T00:47:35;21.88;;;19.90;;
46653;SDS011;38960;51.074;17.004;2022-07-01T00:50:03;21.70;;;19.98;;
46653;SDS011;38960;51.074;17.004;2022-07-01T00:52:30;23.10;;;21.30;;
46653;SDS011;38960;51.074;17.004;2022-07-01T00:54:56;22.77;;;20.73;;
46653;SDS011;38960;51.074;17.004;2022-07-01T00:57:22;22.65;;;20.52;;
46653;SDS011;38960;51.074;17.004;2022-07-01T00:59:48;21.70;;;19.73;;
46653;SDS011;38960;51.074;17.004;2022-07-01T01:02:13;22.30;;;20.48;;
46653;SDS011;38960;51.074;17.004;2022-07-01T01:04:39;21.33;;;19.63;;
46653;SDS011;38960;51.074;17.004;2022-07-01T01:07:04;22.40;;;20.55;;
46653;SDS011;38960;51.074;17.004;2022-07-01T01:09:29;21.85;;;19.83;;
46653;SDS011;38960;51.074;17.004;2022-07-01T01:11:55;23.88;;;21.95;;
46653;SDS011;38960;51.074;17.004;2022-07-01T01:14:21;23.02;;;21.13;;
46653;SDS011;38960;51.074;17.004;2022-07-01T01:16:47;21.58;;;19.80;;
46653;SDS011;38960;51.074;17.004;2022-07-01T01:19:12;23.20;;;21.02;;
46653;SDS011;38960;51.074;17.004;2022-07-01T01:21:39;22.20;;;20.20;;
46653;SDS011;38960;51.074;17.004;2022-07-01T01:24:04;22.50;;;20.65;;
46653;SDS011;38960;51.074;17.004;2022-07-01T01:26:32;22.45;;;20.75;;
46653;SDS011;38960;51.074;17.004;2022-07-01T01:28:57;24.80;;;22.48;;
46653;SDS011;38960;51.074;17.004;2022-07-01T01:31:27;24.55;;;22.33;;
46653;SDS011;38960;51.074;17.004;2022-07-01T01:33:55;22.85;;;20.88;;
46653;SDS011;38960;51.074;17.004;2022-07-01T01:36:22;24.45;;;21.30;;
46653;SDS011;38960;51.074;17.004;2022-07-01T01:38:47;23.10;;;21.30;;
46653;SDS011;38960;51.074;17.004;2022-07-01T01:41:13;24.65;;;22.65;;
46653;SDS011;38960;51.074;17.004;2022-07-01T01:43:38;23.15;;;21.20;;
46653;SDS011;38960;51.074;17.004;2022-07-01T01:46:04;22.27;;;20.38;;
46653;SDS011;38960;51.074;17.004;2022-07-01T01:48:30;22.63;;;20.63;;
46653;SDS011;38960;51.074;17.004;2022-07-01T01:50:56;22.25;;;20.48;;
46653;SDS011;38960;51.074;17.004;2022-07-01T01:53:22;22.13;;;20.38;;
46653;SDS011;38960;51.074;17.004;2022-07-01T01:55:48;23.30;;;21.40;;
46653;SDS011;38960;51.074;17.004;2022-07-01T01:58:14;23.92;;;20.38;;
46653;SDS011;38960;51.074;17.004;2022-07-01T02:00:39;22.67;;;20.98;;
46653;SDS011;38960;51.074;17.004;2022-07-01T02:03:05;23.55;;;21.58;;
46653;SDS011;38960;51.074;17.004;2022-07-01T02:05:30;23.77;;;21.70;;
46653;SDS011;38960;51.074;17.004;2022-07-01T02:07:56;23.40;;;21.13;;
46653;SDS011;38960;51.074;17.004;2022-07-01T02:10:21;23.70;;;21.77;;
46653;SDS011;38960;51.074;17.004;2022-07-01T02:12:47;23.40;;;21.40;;
46653;SDS011;38960;51.074;17.004;2022-07-01T02:15:12;22.98;;;21.27;;
46653;SDS011;38960;51.074;17.004;2022-07-01T02:17:38;23.20;;;21.02;;
46653;SDS011;38960;51.074;17.004;2022-07-01T02:20:04;23.65;;;21.52;;
46653;SDS011;38960;51.074;17.004;2022-07-01T02:22:30;23.83;;;21.65;;
46653;SDS011;38960;51.074;17.004;2022-07-01T02:24:55;24.05;;;21.65;;
46653;SDS011;38960;51.074;17.004;2022-07-01T02:27:20;23.08;;;20.67;;
46653;SDS011;38960;51.074;17.004;2022-07-01T02:29:46;23.05;;;20.95;;
46653;SDS011;38960;51.074;17.004;2022-07-01T02:32:11;22.65;;;20.80;;
46653;SDS011;38960;51.074;17.004;2022-07-01T02:34:37;24.23;;;22.23;;
46653;SDS011;38960;51.074;17.004;2022-07-01T02:37:03;29.13;;;21.77;;
46653;SDS011;38960;51.074;17.004;2022-07-01T02:39:28;23.63;;;21.27;;
46653;SDS011;38960;51.074;17.004;2022-07-01T02:41:54;24.70;;;22.17;;
46653;SDS011;38960;51.074;17.004;2022-07-01T02:44:38;23.30;;;21.15;;
46653;SDS011;38960;51.074;17.004;2022-07-01T02:47:04;22.77;;;20.55;;
46653;SDS011;38960;51.074;17.004;2022-07-01T02:49:30;24.50;;;21.80;;
46653;SDS011;38960;51.074;17.004;2022-07-01T02:51:56;26.27;;;24.10;;
46653;SDS011;38960;51.074;17.004;2022-07-01T02:54:21;24.17;;;22.27;;
46653;SDS011;38960;51.074;17.004;2022-07-01T02:56:47;23.58;;;21.67;;
46653;SDS011;38960;51.074;17.004;2022-07-01T02:59:12;24.85;;;22.70;;
46653;SDS011;38960;51.074;17.004;2022-07-01T03:01:38;23.98;;;22.17;;
46653;SDS011;38960;51.074;17.004;2022-07-01T03:04:03;24.20;;;21.88;;
46653;SDS011;38960;51.074;17.004;2022-07-01T03:06:29;23.50;;;21.60;;
46653;SDS011;38960;51.074;17.004;2022-07-01T03:08:54;22.77;;;20.85;;
46653;SDS011;38960;51.074;17.004;2022-07-01T03:11:21;24.70;;;22.77;;
46653;SDS011;38960;51.074;17.004;2022-07-01T03:13:46;24.60;;;22.23;;
46653;SDS011;38960;51.074;17.004;2022-07-01T03:16:12;24.23;;;22.25;;
46653;SDS011;38960;51.074;17.004;2022-07-01T03:18:37;23.30;;;21.40;;
46653;SDS011;38960;51.074;17.004;2022-07-01T03:21:03;24.58;;;22.05;;
46653;SDS011;38960;51.074;17.004;2022-07-01T03:23:28;23.92;;;22.08;;
46653;SDS011;38960;51.074;17.004;2022-07-01T03:25:54;24.35;;;22.40;;
46653;SDS011;38960;51.074;17.004;2022-07-01T03:28:19;25.52;;;23.38;;
46653;SDS011;38960;51.074;17.004;2022-07-01T03:30:46;24.65;;;22.75;;
46653;SDS011;38960;51.074;17.004;2022-07-01T03:33:11;23.77;;;21.77;;
46653;SDS011;38960;51.074;17.004;2022-07-01T03:35:37;23.88;;;21.70;;
46653;SDS011;38960;51.074;17.004;2022-07-01T03:38:05;24.38;;;22.02;;
46653;SDS011;38960;51.074;17.004;2022-07-01T03:40:31;23.95;;;22.00;;
46653;SDS011;38960;51.074;17.004;2022-07-01T03:42:57;24.50;;;22.20;;
46653;SDS011;38960;51.074;17.004;2022-07-01T03:45:22;24.05;;;22.08;;
46653;SDS011;38960;51.074;17.004;2022-07-01T03:47:48;23.17;;;21.42;;
46653;SDS011;38960;51.074;17.004;2022-07-01T03:50:15;23.38;;;21.05;;
46653;SDS011;38960;51.074;17.004;2022-07-01T03:52:41;22.35;;;20.48;;
46653;SDS011;38960;51.074;17.004;2022-07-01T03:55:10;21.05;;;19.35;;
46653;SDS011;38960;51.074;17.004;2022-07-01T03:57:36;21.73;;;19.70;;
46653;SDS011;38960;51.074;17.004;2022-07-01T04:00:02;22.85;;;20.92;;
46653;SDS011;38960;51.074;17.004;2022-07-01T04:02:30;23.92;;;21.83;;
46653;SDS011;38960;51.074;17.004;2022-07-01T04:04:55;23.13;;;20.92;;
46653;SDS011;38960;51.074;17.004;2022-07-01T04:07:21;22.80;;;20.88;;
46653;SDS011;38960;51.074;17.004;2022-07-01T04:09:47;25.77;;;23.05;;
46653;SDS011;38960;51.074;17.004;2022-07-01T04:12:12;30.13;;;24.80;;
46653;SDS011;38960;51.074;17.004;2022-07-01T04:14:38;25.48;;;23.10;;
46653;SDS011;38960;51.074;17.004;2022-07-01T04:17:04;24.60;;;22.10;;
46653;SDS011;38960;51.074;17.004;2022-07-01T04:19:29;25.35;;;23.02;;
46653;SDS011;38960;51.074;17.004;2022-07-01T04:21:55;22.10;;;20.40;;
46653;SDS011;38960;51.074;17.004;2022-07-01T04:24:39;22.05;;;19.90;;
46653;SDS011;38960;51.074;17.004;2022-07-01T04:27:04;21.83;;;20.02;;
46653;SDS011;38960;51.074;17.004;2022-07-01T04:29:30;22.98;;;21.02;;
46653;SDS011;38960;51.074;17.004;2022-07-01T04:31:56;22.38;;;20.00;;
46653;SDS011;38960;51.074;17.004;2022-07-01T04:34:22;22.08;;;20.38;;
46653;SDS011;38960;51.074;17.004;2022-07-01T04:36:47;21.75;;;20.05;;
46653;SDS011;38960;51.074;17.004;2022-07-01T04:39:13;22.08;;;20.20;;
46653;SDS011;38960;51.074;17.004;2022-07-01T04:41:38;21.95;;;20.15;;
46653;SDS011;38960;51.074;17.004;2022-07-01T04:44:22;22.30;;;20.33;;
46653;SDS011;38960;51.074;17.004;2022-07-01T04:46:48;21.55;;;20.05;;
46653;SDS011;38960;51.074;17.004;2022-07-01T04:49:13;21.20;;;19.15;;
46653;SDS011;38960;51.074;17.004;2022-07-01T04:51:39;21.67;;;19.70;;
46653;SDS011;38960;51.074;17.004;2022-07-01T04:54:05;22.13;;;20.25;;
46653;SDS011;38960;51.074;17.004;2022-07-01T04:56:31;23.73;;;21.70;;
46653;SDS011;38960;51.074;17.004;2022-07-01T04:58:57;22.23;;;19.77;;
46653;SDS011;38960;51.074;17.004;2022-07-01T05:01:22;22.23;;;20.30;;
46653;SDS011;38960;51.074;17.004;2022-07-01T05:03:48;22.48;;;20.58;;
46653;SDS011;38960;51.074;17.004;2022-07-01T05:06:14;21.50;;;19.75;;
46653;SDS011;38960;51.074;17.004;2022-07-01T05:08:39;23.52;;;20.17;;
46653;SDS011;38960;51.074;17.004;2022-07-01T05:11:05;23.60;;;21.75;;
46653;SDS011;38960;51.074;17.004;2022-07-01T05:13:31;28.58;;;21.65;;
46653;SDS011;38960;51.074;17.004;2022-07-01T05:15:58;23.83;;;21.48;;
46653;SDS011;38960;51.074;17.004;2022-07-01T05:18:24;22.00;;;20.20;;
46653;SDS011;38960;51.074;17.004;2022-07-01T05:21:08;24.35;;;22.00;;
46653;SDS011;38960;51.074;17.004;2022-07-01T05:23:52;22.58;;;20.58;;
46653;SDS011;38960;51.074;17.004;2022-07-01T05:26:17;22.42;;;20.13;;
46653;SDS011;38960;51.074;17.004;2022-07-01T05:28:43;21.73;;;19.83;;
46653;SDS011;38960;51.074;17.004;2022-07-01T05:31:09;22.25;;;20.33;;
46653;SDS011;38960;51.074;17.004;2022-07-01T05:33:35;22.75;;;20.45;;
46653;SDS011;38960;51.074;17.004;2022-07-01T05:36:00;23.13;;;21.40;;
46653;SDS011;38960;51.074;17.004;2022-07-01T05:38:27;25.55;;;21.65;;
46653;SDS011;38960;51.074;17.004;2022-07-01T05:40:52;22.77;;;20.77;;
46653;SDS011;38960;51.074;17.004;2022-07-01T05:43:19;22.85;;;20.85;;
46653;SDS011;38960;51.074;17.004;2022-07-01T05:45:45;22.48;;;20.77;;
46653;SDS011;38960;51.074;17.004;2022-07-01T05:48:10;23.05;;;20.63;;
46653;SDS011;38960;51.074;17.004;2022-07-01T05:50:36;22.67;;;20.42;;
46653;SDS011;38960;51.074;17.004;2022-07-01T05:53:01;23.48;;;21.52;;
46653;SDS011;38960;51.074;17.004;2022-07-01T05:55:28;23.20;;;20.90;;
46653;SDS011;38960;51.074;17.004;2022-07-01T05:57:53;22.50;;;20.60;;
46653;SDS011;38960;51.074;17.004;2022-07-01T06:00:19;24.40;;;20.85;;
46653;SDS011;38960;51.074;17.004;2022-07-01T06:02:44;21.80;;;20.10;;
46653;SDS011;38960;51.074;17.004;2022-07-01T06:05:10;22.35;;;20.30;;
46653;SDS011;38960;51.074;17.004;2022-07-01T06:07:39;22.05;;;20.15;;
46653;SDS011;38960;51.074;17.004;2022-07-01T06:10:06;22.45;;;20.13;;
46653;SDS011;38960;51.074;17.004;2022-07-01T06:12:38;21.20;;;19.30;;
46653;SDS011;38960;51.074;17.004;2022-07-01T06:15:08;21.30;;;19.48;;
46653;SDS011;38960;51.074;17.004;2022-07-01T06:17:35;23.58;;;20.15;;
46653;SDS011;38960;51.074;17.004;2022-07-01T06:20:01;21.48;;;19.40;;
46653;SDS011;38960;51.074;17.004;2022-07-01T06:22:27;22.55;;;20.48;;
46653;SDS011;38960;51.074;17.004;2022-07-01T06:24:53;21.35;;;19.63;;
46653;SDS011;38960;51.074;17.004;2022-07-01T06:27:18;22.48;;;20.27;;
46653;SDS011;38960;51.074;17.004;2022-07-01T06:29:44;22.33;;;20.10;;
46653;SDS011;38960;51.074;17.004;2022-07-01T06:32:09;21.73;;;19.63;;
46653;SDS011;38960;51.074;17.004;2022-07-01T06:34:34;21.23;;;19.48;;
46653;SDS011;38960;51.074;17.004;2022-07-01T06:37:00;20.65;;;18.75;;
46653;SDS011;38960;51.074;17.004;2022-07-01T06:39:27;20.88;;;18.77;;
46653;SDS011;38960;51.074;17.004;2022-07-01T06:41:52;21.50;;;19.65;;
46653;SDS011;38960;51.074;17.004;2022-07-01T06:44:18;21.13;;;19.50;;
46653;SDS011;38960;51.074;17.004;2022-07-01T06:46:44;20.42;;;18.52;;
46653;SDS011;38960;51.074;17.004;2022-07-01T06:49:10;21.15;;;18.98;;
46653;SDS011;38960;51.074;17.004;2022-07-01T06:51:35;20.52;;;18.70;;
46653;SDS011;38960;51.074;17.004;2022-07-01T06:54:01;21.95;;;20.02;;
46653;SDS011;38960;51.074;17.004;2022-07-01T06:56:26;20.10;;;18.70;;
46653;SDS011;38960;51.074;17.004;2022-07-01T06:58:52;23.70;;;19.13;;
46653;SDS011;38960;51.074;17.004;2022-07-01T07:01:17;19.95;;;18.20;;
46653;SDS011;38960;51.074;17.004;2022-07-01T07:03:43;20.45;;;18.63;;
46653;SDS011;38960;51.074;17.004;2022-07-01T07:06:08;21.15;;;19.25;;
46653;SDS011;38960;51.074;17.004;2022-07-01T07:08:34;20.88;;;18.95;;
46653;SDS011;38960;51.074;17.004;2022-07-01T07:10:59;20.45;;;18.85;;
46653;SDS011;38960;51.074;17.004;2022-07-01T07:13:25;21.42;;;19.73;;
46653;SDS011;38960;51.074;17.004;2022-07-01T07:15:51;22.33;;;20.65;;
46653;SDS011;38960;51.074;17.004;2022-07-01T07:18:17;21.33;;;19.33;;
46653;SDS011;38960;51.074;17.004;2022-07-01T07:20:42;20.33;;;18.67;;
46653;SDS011;38960;51.074;17.004;2022-07-01T07:23:08;20.83;;;19.15;;
46653;SDS011;38960;51.074;17.004;2022-07-01T07:25:33;19.75;;;18.23;;
46653;SDS011;38960;51.074;17.004;2022-07-01T07:27:59;20.63;;;18.92;;
46653;SDS011;38960;51.074;17.004;2022-07-01T07:30:24;21.95;;;20.25;;
46653;SDS011;38960;51.074;17.004;2022-07-01T07:32:50;21.38;;;19.77;;
46653;SDS011;38960;51.074;17.004;2022-07-01T07:35:15;19.70;;;18.38;;
46653;SDS011;38960;51.074;17.004;2022-07-01T07:37:41;21.23;;;19.42;;
46653;SDS011;38960;51.074;17.004;2022-07-01T07:40:08;21.17;;;19.38;;
46653;SDS011;38960;51.074;17.004;2022-07-01T07:42:35;22.40;;;20.48;;
46653;SDS011;38960;51.074;17.004;2022-07-01T07:45:01;21.30;;;19.73;;
46653;SDS011;38960;51.074;17.004;2022-07-01T07:47:28;22.08;;;20.00;;
46653;SDS011;38960;51.074;17.004;2022-07-01T07:49:53;21.42;;;19.63;;
46653;SDS011;38960;51.074;17.004;2022-07-01T07:52:19;21.30;;;19.38;;
46653;SDS011;38960;51.074;17.004;2022-07-01T07:54:44;21.02;;;19.13;;
46653;SDS011;38960;51.074;17.004;2022-07-01T07:57:10;18.95;;;17.55;;
46653;SDS011;38960;51.074;17.004;2022-07-01T07:59:35;21.20;;;19.40;;
46653;SDS011;38960;51.074;17.004;2022-07-01T08:02:01;20.73;;;19.08;;
46653;SDS011;38960;51.074;17.004;2022-07-01T08:04:27;19.95;;;18.65;;
46653;SDS011;38960;51.074;17.004;2022-07-01T08:06:52;20.02;;;18.17;;
46653;SDS011;38960;51.074;17.004;2022-07-01T08:09:18;19.73;;;17.98;;
46653;SDS011;38960;51.074;17.004;2022-07-01T08:11:44;21.30;;;19.17;;
46653;SDS011;38960;51.074;17.004;2022-07-01T08:14:09;19.65;;;17.95;;
46653;SDS011;38960;51.074;17.004;2022-07-01T08:16:35;19.98;;;18.30;;
46653;SDS011;38960;51.074;17.004;2022-07-01T08:19:01;19.77;;;17.88;;
46653;SDS011;38960;51.074;17.004;2022-07-01T08:21:27;19.58;;;18.30;;
46653;SDS011;38960;51.074;17.004;2022-07-01T08:23:53;21.02;;;19.27;;
46653;SDS011;38960;51.074;17.004;2022-07-01T08:26:19;20.95;;;19.33;;
46653;SDS011;38960;51.074;17.004;2022-07-01T08:28:45;20.27;;;18.67;;
46653;SDS011;38960;51.074;17.004;2022-07-01T08:31:11;19.77;;;18.27;;
46653;SDS011;38960;51.074;17.004;2022-07-01T08:33:36;20.63;;;18.92;;
46653;SDS011;38960;51.074;17.004;2022-07-01T08:36:05;19.45;;;17.95;;
46653;SDS011;38960;51.074;17.004;2022-07-01T08:38:31;19.88;;;18.17;;
46653;SDS011;38960;51.074;17.004;2022-07-01T08:40:57;20.75;;;19.00;;
46653;SDS011;38960;51.074;17.004;2022-07-01T08:43:22;19.27;;;17.45;;
46653;SDS011;38960;51.074;17.004;2022-07-01T08:45:48;20.92;;;18.85;;
46653;SDS011;38960;51.074;17.004;2022-07-01T08:48:15;19.98;;;18.10;;
46653;SDS011;38960;51.074;17.004;2022-07-01T08:50:41;19.27;;;17.45;;
46653;SDS011;38960;51.074;17.004;2022-07-01T08:53:07;20.20;;;18.40;;
46653;SDS011;38960;51.074;17.004;2022-07-01T08:55:33;20.40;;;18.60;;
46653;SDS011;38960;51.074;17.004;2022-07-01T08:58:20;19.30;;;17.80;;
46653;SDS011;38960;51.074;17.004;2022-07-01T09:00:46;19.88;;;18.02;;
46653;SDS011;38960;51.074;17.004;2022-07-01T09:03:11;19.23;;;17.88;;
46653;SDS011;38960;51.074;17.004;2022-07-01T09:05:37;18.83;;;17.45;;
46653;SDS011;38960;51.074;17.004;2022-07-01T09:08:03;20.05;;;18.20;;
46653;SDS011;38960;51.074;17.004;2022-07-01T09:10:30;20.35;;;18.50;;
46653;SDS011;38960;51.074;17.004;2022-07-01T09:13:05;19.83;;;18.38;;
46653;SDS011;38960;51.074;17.004;2022-07-01T09:15:32;20.55;;;19.08;;
46653;SDS011;38960;51.074;17.004;2022-07-01T09:18:05;19.65;;;18.08;;
46653;SDS011;38960;51.074;17.004;2022-07-01T09:20:36;20.48;;;18.55;;
46653;SDS011;38960;51.074;17.004;2022-07-01T09:25:42;19.95;;;18.35;;
46653;SDS011;38960;51.074;17.004;2022-07-01T09:28:15;19.67;;;18.13;;
46653;SDS011;38960;51.074;17.004;2022-07-01T09:30:52;19.92;;;18.52;;
46653;SDS011;38960;51.074;17.004;2022-07-01T09:35:46;19.92;;;18.33;;
46653;SDS011;38960;51.074;17.004;2022-07-01T09:38:17;20.02;;;18.33;;
46653;SDS011;38960;51.074;17.004;2022-07-01T09:43:20;19.73;;;18.20;;
46653;SDS011;38960;51.074;17.004;2022-07-01T09:45:51;19.60;;;18.20;;
46653;SDS011;38960;51.074;17.004;2022-07-01T09:48:25;20.55;;;18.77;;
46653;SDS011;38960;51.074;17.004;2022-07-01T09:50:52;19.90;;;18.15;;
46653;SDS011;38960;51.074;17.004;2022-07-01T09:53:18;18.73;;;17.35;;
46653;SDS011;38960;51.074;17.004;2022-07-01T09:55:44;19.48;;;17.60;;
46653;SDS011;38960;51.074;17.004;2022-07-01T09:58:10;19.02;;;17.42;;
46653;SDS011;38960;51.074;17.004;2022-07-01T10:00:36;18.55;;;16.98;;
46653;SDS011;38960;51.074;17.004;2022-07-01T10:03:03;19.20;;;17.77;;
46653;SDS011;38960;51.074;17.004;2022-07-01T10:05:29;19.95;;;18.55;;
46653;SDS011;38960;51.074;17.004;2022-07-01T10:13:31;20.70;;;18.88;;
46653;SDS011;38960;51.074;17.004;2022-07-01T10:15:57;19.50;;;17.83;;
46653;SDS011;38960;51.074;17.004;2022-07-01T10:18:24;19.30;;;17.95;;
46653;SDS011;38960;51.074;17.004;2022-07-01T10:20:51;18.77;;;17.38;;
46653;SDS011;38960;51.074;17.004;2022-07-01T10:23:19;19.20;;;17.80;;
46653;SDS011;38960;51.074;17.004;2022-07-01T10:25:47;20.60;;;18.73;;
46653;SDS011;38960;51.074;17.004;2022-07-01T10:28:21;20.40;;;18.50;;
46653;SDS011;38960;51.074;17.004;2022-07-01T10:30:55;19.65;;;17.80;;
46653;SDS011;38960;51.074;17.004;2022-07-01T10:33:26;19.95;;;18.35;;
46653;SDS011;38960;51.074;17.004;2022-07-01T10:36:04;19.83;;;18.23;;
46653;SDS011;38960;51.074;17.004;2022-07-01T10:38:33;20.05;;;17.73;;
46653;SDS011;38960;51.074;17.004;2022-07-01T10:40:59;19.00;;;17.38;;
46653;SDS011;38960;51.074;17.004;2022-07-01T10:43:37;18.63;;;17.20;;
46653;SDS011;38960;51.074;17.004;2022-07-01T10:46:04;22.83;;;18.00;;
46653;SDS011;38960;51.074;17.004;2022-07-01T10:48:33;20.42;;;18.58;;
46653;SDS011;38960;51.074;17.004;2022-07-01T10:50:59;18.53;;;17.10;;
46653;SDS011;38960;51.074;17.004;2022-07-01T10:53:25;19.38;;;17.60;;
46653;SDS011;38960;51.074;17.004;2022-07-01T10:56:08;18.10;;;16.90;;
46653;SDS011;38960;51.074;17.004;2022-07-01T10:58:37;18.13;;;16.73;;
46653;SDS011;38960;51.074;17.004;2022-07-01T11:01:03;19.77;;;17.80;;
46653;SDS011;38960;51.074;17.004;2022-07-01T11:03:33;18.88;;;17.35;;
46653;SDS011;38960;51.074;17.004;2022-07-01T11:06:00;19.33;;;17.92;;
46653;SDS011;38960;51.074;17.004;2022-07-01T11:08:25;19.92;;;17.50;;
46653;SDS011;38960;51.074;17.004;2022-07-01T11:10:52;18.67;;;17.33;;
46653;SDS011;38960;51.074;17.004;2022-07-01T11:13:21;17.63;;;16.27;;
46653;SDS011;38960;51.074;17.004;2022-07-01T11:15:47;18.15;;;16.67;;
46653;SDS011;38960;51.074;17.004;2022-07-01T11:18:13;19.05;;;17.67;;
46653;SDS011;38960;51.074;17.004;2022-07-01T11:20:40;21.77;;;20.15;;
46653;SDS011;38960;51.074;17.004;2022-07-01T11:23:05;22.23;;;20.23;;
46653;SDS011;38960;51.074;17.004;2022-07-01T11:25:31;15.95;;;14.45;;
46653;SDS011;38960;51.074;17.004;2022-07-01T11:27:57;18.75;;;17.15;;
46653;SDS011;38960;51.074;17.004;2022-07-01T11:30:22;22.08;;;20.48;;
46653;SDS011;38960;51.074;17.004;2022-07-01T11:32:52;18.85;;;17.20;;
46653;SDS011;38960;51.074;17.004;2022-07-01T11:35:23;19.27;;;17.23;;
46653;SDS011;38960;51.074;17.004;2022-07-01T11:38:13;20.92;;;19.23;;
46653;SDS011;38960;51.074;17.004;2022-07-01T11:40:58;19.73;;;18.23;;
46653;SDS011;38960;51.074;17.004;2022-07-01T11:43:27;19.88;;;17.95;;
46653;SDS011;38960;51.074;17.004;2022-07-01T11:45:54;17.55;;;16.23;;
46653;SDS011;38960;51.074;17.004;2022-07-01T11:51:10;18.60;;;17.10;;
46653;SDS011;38960;51.074;17.004;2022-07-01T11:53:38;18.25;;;16.85;;
46653;SDS011;38960;51.074;17.004;2022-07-01T11:56:05;18.20;;;16.90;;
46653;SDS011;38960;51.074;17.004;2022-07-01T11:58:50;18.20;;;16.40;;
46653;SDS011;38960;51.074;17.004;2022-07-01T12:01:35;17.95;;;16.15;;
46653;SDS011;38960;51.074;17.004;2022-07-01T12:04:04;17.33;;;15.73;;
46653;SDS011;38960;51.074;17.004;2022-07-01T12:06:31;17.13;;;15.82;;
46653;SDS011;38960;51.074;17.004;2022-07-01T12:08:58;17.70;;;16.10;;
46653;SDS011;38960;51.074;17.004;2022-07-01T12:11:24;17.58;;;15.40;;
46653;SDS011;38960;51.074;17.004;2022-07-01T12:13:51;17.02;;;15.55;;
46653;SDS011;38960;51.074;17.004;2022-07-01T12:16:18;16.42;;;15.32;;
46653;SDS011;38960;51.074;17.004;2022-07-01T12:18:57;18.77;;;16.42;;
46653;SDS011;38960;51.074;17.004;2022-07-01T12:21:25;17.48;;;15.77;;
46653;SDS011;38960;51.074;17.004;2022-07-01T12:24:07;18.15;;;16.50;;
46653;SDS011;38960;51.074;17.004;2022-07-01T12:26:35;18.15;;;16.65;;
46653;SDS011;38960;51.074;17.004;2022-07-01T12:29:12;18.02;;;16.55;;
46653;SDS011;38960;51.074;17.004;2022-07-01T12:31:41;18.30;;;16.77;;
46653;SDS011;38960;51.074;17.004;2022-07-01T12:34:08;18.83;;;17.23;;
46653;SDS011;38960;51.074;17.004;2022-07-01T12:36:33;18.50;;;17.00;;
46653;SDS011;38960;51.074;17.004;2022-07-01T12:38:59;18.73;;;16.98;;
46653;SDS011;38960;51.074;17.004;2022-07-01T12:41:27;18.70;;;17.30;;
46653;SDS011;38960;51.074;17.004;2022-07-01T12:43:53;18.80;;;17.10;;
46653;SDS011;38960;51.074;17.004;2022-07-01T12:46:29;19.95;;;17.95;;
46653;SDS011;38960;51.074;17.004;2022-07-01T12:48:55;20.13;;;18.20;;
46653;SDS011;38960;51.074;17.004;2022-07-01T12:51:21;20.52;;;18.38;;
46653;SDS011;38960;51.074;17.004;2022-07-01T12:53:53;19.13;;;17.52;;
46653;SDS011;38960;51.074;17.004;2022-07-01T12:56:23;18.75;;;17.10;;
46653;SDS011;38960;51.074;17.004;2022-07-01T12:58:50;18.98;;;17.20;;
46653;SDS011;38960;51.074;17.004;2022-07-01T13:01:18;18.45;;;16.80;;
46653;SDS011;38960;51.074;17.004;2022-07-01T13:03:44;17.60;;;16.20;;
46653;SDS011;38960;51.074;17.004;2022-07-01T13:06:09;18.20;;;16.50;;
46653;SDS011;38960;51.074;17.004;2022-07-01T13:08:35;18.25;;;16.48;;
46653;SDS011;38960;51.074;17.004;2022-07-01T13:11:00;19.17;;;17.25;;
46653;SDS011;38960;51.074;17.004;2022-07-01T13:13:26;19.33;;;16.75;;
46653;SDS011;38960;51.074;17.004;2022-07-01T13:15:52;18.23;;;16.48;;
46653;SDS011;38960;51.074;17.004;2022-07-01T13:18:18;18.02;;;16.35;;
46653;SDS011;38960;51.074;17.004;2022-07-01T13:20:43;18.73;;;17.20;;
46653;SDS011;38960;51.074;17.004;2022-07-01T13:23:11;18.88;;;17.27;;
46653;SDS011;38960;51.074;17.004;2022-07-01T13:25:37;17.80;;;16.30;;
46653;SDS011;38960;51.074;17.004;2022-07-01T13:28:03;19.27;;;17.92;;
46653;SDS011;38960;51.074;17.004;2022-07-01T13:30:29;18.73;;;17.00;;
46653;SDS011;38960;51.074;17.004;2022-07-01T13:32:54;18.02;;;16.63;;
46653;SDS011;38960;51.074;17.004;2022-07-01T13:35:20;18.52;;;16.67;;
46653;SDS011;38960;51.074;17.004;2022-07-01T13:37:48;18.70;;;16.90;;
46653;SDS011;38960;51.074;17.004;2022-07-01T13:40:14;20.90;;;17.10;;
46653;SDS011;38960;51.074;17.004;2022-07-01T13:42:40;18.92;;;17.00;;
46653;SDS011;38960;51.074;17.004;2022-07-01T13:45:06;19.35;;;17.33;;
46653;SDS011;38960;51.074;17.004;2022-07-01T13:47:31;18.58;;;17.02;;
46653;SDS011;38960;51.074;17.004;2022-07-01T13:49:57;20.48;;;18.67;;
46653;SDS011;38960;51.074;17.004;2022-07-01T13:52:23;23.88;;;19.60;;
46653;SDS011;38960;51.074;17.004;2022-07-01T13:54:48;21.23;;;18.58;;
46653;SDS011;38960;51.074;17.004;2022-07-01T13:57:15;19.48;;;17.88;;
46653;SDS011;38960;51.074;17.004;2022-07-01T13:59:40;19.50;;;17.90;;
46653;SDS011;38960;51.074;17.004;2022-07-01T14:02:06;20.70;;;18.90;;
46653;SDS011;38960;51.074;17.004;2022-07-01T14:04:31;20.48;;;18.45;;
46653;SDS011;38960;51.074;17.004;2022-07-01T14:06:57;17.52;;;16.05;;
46653;SDS011;38960;51.074;17.004;2022-07-01T14:09:23;18.15;;;16.63;;
46653;SDS011;38960;51.074;17.004;2022-07-01T14:11:48;19.40;;;17.75;;
46653;SDS011;38960;51.074;17.004;2022-07-01T14:14:14;18.27;;;16.75;;
46653;SDS011;38960;51.074;17.004;2022-07-01T14:16:39;19.58;;;17.88;;
46653;SDS011;38960;51.074;17.004;2022-07-01T14:19:05;18.83;;;17.42;;
46653;SDS011;38960;51.074;17.004;2022-07-01T14:21:30;20.77;;;18.83;;
46653;SDS011;38960;51.074;17.004;2022-07-01T14:23:56;23.25;;;21.00;;